createdAt,value
2022-12-03T00:01:07.774Z,7.10
2022-12-03T00:03:36.073Z,7.63
2022-12-03T00:06:03.081Z,7.35
2022-12-03T00:08:30.025Z,7.18
2022-12-03T00:10:56.961Z,7.82
2022-12-03T00:13:23.865Z,6.93
2022-12-03T00:15:51.280Z,7.10
2022-12-03T00:18:18.286Z,6.43
2022-12-03T00:20:45.227Z,6.70
2022-12-03T00:23:12.183Z,7.72
2022-12-03T00:25:39.086Z,6.78
2022-12-03T00:28:06.026Z,6.78
2022-12-03T00:30:32.944Z,6.50
2022-12-03T00:33:00.738Z,7.13
2022-12-03T00:35:28.373Z,7.78
2022-12-03T00:37:56.013Z,6.82
2022-12-03T00:40:22.993Z,7.32
2022-12-03T00:42:49.912Z,6.82
2022-12-03T00:45:16.937Z,7.15
2022-12-03T00:47:43.849Z,6.35
2022-12-03T00:50:11.403Z,6.70
2022-12-03T00:52:38.346Z,6.68
2022-12-03T00:55:05.736Z,6.53
2022-12-03T00:57:32.735Z,6.45
2022-12-03T00:59:59.661Z,6.18
2022-12-03T01:02:26.536Z,5.82
2022-12-03T01:04:53.781Z,6.55
2022-12-03T01:07:21.041Z,6.38
2022-12-03T01:09:48.009Z,6.60
2022-12-03T01:12:16.845Z,6.57
2022-12-03T01:14:43.757Z,6.28
2022-12-03T01:17:10.801Z,6.05
2022-12-03T01:19:37.845Z,6.00
2022-12-03T01:22:05.137Z,5.68
2022-12-03T01:24:32.019Z,5.97
2022-12-03T01:26:59.681Z,5.85
2022-12-03T01:29:26.904Z,6.22
2022-12-03T01:32:12.684Z,5.72
2022-12-03T01:34:39.586Z,5.82
2022-12-03T01:37:06.538Z,5.50
2022-12-03T01:39:33.463Z,5.82
2022-12-03T01:42:00.717Z,6.30
2022-12-03T01:44:31.613Z,5.75
2022-12-03T01:47:02.139Z,5.38
2022-12-03T01:49:38.242Z,5.88
2022-12-03T01:52:05.791Z,5.97
2022-12-03T01:54:39.775Z,5.68
2022-12-03T01:57:21.870Z,5.90
2022-12-03T01:59:49.354Z,5.30
2022-12-03T02:02:22.715Z,5.53
2022-12-03T02:04:50.346Z,6.22
2022-12-03T02:07:30.732Z,6.10
2022-12-03T02:10:01.165Z,5.68
2022-12-03T02:12:38.473Z,5.35
2022-12-03T02:15:07.156Z,4.93
2022-12-03T02:20:02.812Z,5.55
2022-12-03T02:23:03.518Z,4.95
2022-12-03T02:25:33.916Z,5.57
2022-12-03T02:28:01.646Z,5.57
2022-12-03T02:30:30.315Z,5.57
2022-12-03T02:35:28.720Z,5.05
2022-12-03T02:38:00.262Z,5.60
2022-12-03T02:40:31.097Z,5.63
2022-12-03T02:43:00.974Z,6.07
2022-12-03T02:45:38.161Z,5.45
2022-12-03T02:48:20.681Z,5.15
2022-12-03T02:50:53.639Z,5.30
2022-12-03T02:53:27.368Z,5.50
2022-12-03T02:55:56.300Z,5.22
2022-12-03T02:58:25.006Z,5.85
2022-12-03T03:00:54.102Z,5.35
2022-12-03T03:03:22.356Z,5.38
2022-12-03T03:05:50.467Z,5.25
2022-12-03T03:08:18.735Z,5.40
2022-12-03T03:10:47.303Z,5.10
2022-12-03T03:13:16.671Z,5.43
2022-12-03T03:15:44.182Z,5.40
2022-12-03T03:18:13.152Z,4.85
2022-12-03T03:20:41.227Z,4.97
2022-12-03T03:23:11.087Z,4.80
2022-12-03T03:25:40.038Z,5.13
2022-12-03T03:28:07.982Z,4.82
2022-12-03T03:30:36.523Z,4.88
2022-12-03T03:35:30.418Z,4.60
2022-12-03T03:37:58.812Z,5.00
2022-12-03T03:40:27.054Z,4.72
2022-12-03T03:42:56.029Z,4.82
2022-12-03T03:45:28.722Z,4.93
2022-12-03T03:47:58.126Z,4.78
2022-12-03T03:52:53.344Z,4.43
2022-12-03T03:55:20.542Z,4.93
2022-12-03T03:57:48.396Z,5.07
2022-12-03T04:00:17.116Z,4.22
2022-12-03T04:02:44.085Z,5.10
2022-12-03T04:05:17.979Z,4.38
2022-12-03T04:07:45.151Z,4.05
2022-12-03T04:10:34.304Z,4.20
2022-12-03T04:13:01.704Z,4.63
2022-12-03T04:15:28.707Z,4.13
2022-12-03T04:18:14.717Z,4.03
2022-12-03T04:20:42.106Z,4.15
2022-12-03T04:23:09.592Z,3.65
2022-12-03T04:25:55.119Z,3.90
2022-12-03T04:28:40.636Z,3.72
2022-12-03T04:31:26.020Z,3.67
2022-12-03T04:34:12.057Z,3.42
2022-12-03T04:36:39.396Z,3.03
2022-12-03T04:39:06.364Z,3.60
2022-12-03T04:41:33.315Z,2.92
2022-12-03T04:44:18.970Z,2.80
2022-12-03T04:46:46.017Z,3.58
2022-12-03T04:49:12.949Z,3.63
2022-12-03T04:51:39.869Z,3.35
2022-12-03T04:54:06.798Z,3.15
2022-12-03T04:56:33.716Z,3.30
2022-12-03T04:59:00.793Z,2.78
2022-12-03T05:01:27.889Z,2.70
2022-12-03T05:03:54.832Z,2.97
2022-12-03T05:06:22.031Z,3.00
2022-12-03T05:08:48.938Z,2.85
2022-12-03T05:11:15.886Z,2.88
2022-12-03T05:13:43.308Z,3.00
2022-12-03T05:16:10.782Z,2.65
2022-12-03T05:18:37.712Z,2.63
2022-12-03T05:21:04.768Z,2.70
2022-12-03T05:23:32.386Z,3.25
2022-12-03T05:25:59.294Z,2.88
2022-12-03T05:28:26.710Z,3.25
2022-12-03T05:30:53.820Z,2.70
2022-12-03T05:33:21.072Z,2.70
2022-12-03T05:35:48.001Z,3.10
2022-12-03T05:38:15.105Z,2.50
2022-12-03T05:40:42.104Z,3.03
2022-12-03T05:43:09.053Z,2.72
2022-12-03T05:45:38.454Z,3.40
2022-12-03T05:48:07.663Z,2.90
2022-12-03T05:50:37.374Z,3.08
2022-12-03T05:53:17.419Z,2.97
2022-12-03T05:55:44.433Z,3.35
2022-12-03T05:58:12.032Z,3.05
2022-12-03T06:00:42.777Z,3.35
2022-12-03T06:03:10.845Z,3.03
2022-12-03T06:05:38.187Z,3.13
2022-12-03T06:08:05.340Z,3.40
2022-12-03T06:10:32.603Z,2.97
2022-12-03T06:12:59.592Z,2.90
2022-12-03T06:15:26.744Z,3.03
2022-12-03T06:17:53.707Z,2.65
2022-12-03T06:20:21.477Z,2.47
2022-12-03T06:22:48.957Z,2.83
2022-12-03T06:25:16.623Z,2.70
2022-12-03T06:27:43.537Z,2.60
2022-12-03T06:30:12.904Z,2.13
2022-12-03T06:32:40.249Z,2.20
2022-12-03T06:35:07.477Z,2.22
2022-12-03T06:37:34.351Z,2.58
2022-12-03T06:40:01.313Z,2.38
2022-12-03T06:42:28.272Z,2.35
2022-12-03T06:44:55.440Z,2.63
2022-12-03T06:47:22.555Z,2.40
2022-12-03T06:49:49.526Z,2.33
2022-12-03T06:52:16.543Z,2.35
2022-12-03T06:54:43.431Z,2.40
2022-12-03T06:57:10.408Z,2.53
2022-12-03T06:59:38.031Z,2.60
2022-12-03T07:02:05.561Z,2.58
2022-12-03T07:04:32.536Z,2.63
2022-12-03T07:06:59.464Z,2.65
2022-12-03T07:09:26.430Z,2.90
2022-12-03T07:11:53.315Z,2.60
2022-12-03T07:14:20.310Z,2.90
2022-12-03T07:16:47.677Z,2.63
2022-12-03T07:19:14.921Z,2.75
2022-12-03T07:21:42.016Z,3.00
2022-12-03T07:24:09.096Z,2.45
2022-12-03T07:26:36.212Z,3.05
2022-12-03T07:29:03.456Z,3.03
2022-12-03T07:31:30.535Z,3.10
2022-12-03T07:33:57.531Z,2.97
2022-12-03T07:36:24.726Z,2.72
2022-12-03T07:38:52.075Z,3.58
2022-12-03T07:41:18.989Z,3.67
2022-12-03T07:43:45.924Z,3.50
2022-12-03T07:46:12.922Z,2.95
2022-12-03T07:48:39.882Z,2.97
2022-12-03T07:51:07.067Z,3.20
2022-12-03T07:53:36.102Z,3.42
2022-12-03T07:56:06.162Z,2.95
2022-12-03T07:58:33.316Z,3.05
2022-12-03T08:01:00.285Z,2.88
2022-12-03T08:03:27.281Z,2.80
2022-12-03T08:05:54.250Z,2.42
2022-12-03T08:08:21.217Z,2.60
2022-12-03T08:10:48.238Z,2.50
2022-12-03T08:13:17.541Z,2.63
2022-12-03T08:15:44.990Z,2.70
2022-12-03T08:18:20.590Z,2.60
2022-12-03T08:20:49.731Z,2.40
2022-12-03T08:23:22.074Z,2.75
2022-12-03T08:25:50.374Z,2.85
2022-12-03T08:28:21.310Z,2.90
2022-12-03T08:30:59.642Z,2.58
2022-12-03T08:33:31.122Z,2.65
2022-12-03T08:35:58.077Z,3.20
2022-12-03T08:38:25.431Z,3.15
2022-12-03T08:40:55.664Z,2.90
2022-12-03T08:43:27.279Z,2.78
2022-12-03T08:45:56.325Z,2.78
2022-12-03T08:48:44.047Z,3.13
2022-12-03T08:51:27.427Z,3.00
2022-12-03T08:54:01.849Z,2.92
2022-12-03T08:56:32.413Z,3.08
2022-12-03T08:59:20.814Z,2.70
2022-12-03T09:04:21.628Z,2.83
2022-12-03T09:06:49.106Z,3.13
2022-12-03T09:09:16.492Z,2.95
2022-12-03T09:11:44.322Z,2.92
2022-12-03T09:14:18.146Z,3.07
2022-12-03T09:16:45.820Z,3.22
2022-12-03T09:19:12.920Z,3.03
2022-12-03T09:21:39.907Z,3.78
2022-12-03T09:24:07.109Z,2.72
2022-12-03T09:26:34.009Z,2.90
2022-12-03T09:29:01.022Z,3.33
2022-12-03T09:31:27.981Z,3.13
2022-12-03T09:33:54.982Z,3.35
2022-12-03T09:36:21.908Z,2.90
2022-12-03T09:38:48.966Z,2.75
2022-12-03T09:41:16.068Z,3.38
2022-12-03T09:44:03.332Z,3.20
2022-12-03T09:46:31.031Z,3.33
2022-12-03T09:48:58.168Z,3.35
2022-12-03T09:51:31.610Z,3.50
2022-12-03T09:54:00.528Z,3.38
2022-12-03T09:56:27.483Z,3.33
2022-12-03T09:58:54.675Z,3.30
2022-12-03T10:01:22.442Z,3.30
2022-12-03T10:03:53.243Z,3.53
2022-12-03T10:06:24.361Z,4.10
2022-12-03T10:08:55.613Z,2.85
2022-12-03T10:11:24.991Z,3.00
2022-12-03T10:13:54.191Z,2.85
2022-12-03T10:16:21.534Z,3.00
2022-12-03T10:18:51.425Z,3.15
2022-12-03T10:21:23.979Z,2.72
2022-12-03T10:24:31.218Z,2.67
2022-12-03T10:27:01.123Z,2.78
2022-12-03T10:29:37.261Z,3.10
2022-12-03T10:32:06.909Z,2.92
2022-12-03T10:34:36.340Z,2.95
2022-12-03T10:37:12.904Z,2.97
2022-12-03T10:39:55.716Z,3.22
2022-12-03T10:42:23.758Z,2.92
2022-12-03T10:45:13.384Z,3.50
2022-12-03T10:47:40.613Z,2.97
2022-12-03T10:50:17.158Z,3.20
2022-12-03T10:52:45.333Z,2.95
2022-12-03T10:55:15.994Z,2.45
2022-12-03T10:57:46.096Z,2.90
2022-12-03T11:00:20.946Z,2.55
2022-12-03T11:02:54.954Z,2.53
2022-12-03T11:05:27.415Z,2.63
2022-12-03T11:07:55.280Z,2.95
2022-12-03T11:10:22.416Z,2.93
2022-12-03T11:13:26.886Z,2.72
2022-12-03T11:15:54.157Z,2.30
2022-12-03T11:18:36.614Z,2.92
2022-12-03T11:21:11.177Z,2.67
2022-12-03T11:23:44.338Z,2.63
2022-12-03T11:26:19.197Z,2.50
2022-12-03T11:28:46.444Z,2.83
2022-12-03T11:31:38.489Z,2.92
2022-12-03T11:34:23.381Z,2.53
2022-12-03T11:37:11.977Z,2.70
2022-12-03T11:39:51.754Z,2.22
2022-12-03T11:42:27.886Z,2.53
2022-12-03T11:45:08.479Z,2.33
2022-12-03T11:47:39.947Z,2.20
2022-12-03T11:50:22.008Z,2.30
2022-12-03T11:53:13.676Z,2.95
2022-12-03T11:55:48.523Z,2.70
2022-12-03T11:58:27.590Z,2.55
2022-12-03T12:00:59.784Z,2.67
2022-12-03T12:03:35.523Z,2.83
2022-12-03T12:06:05.614Z,2.55
2022-12-03T12:08:34.930Z,2.88
2022-12-03T12:11:03.082Z,3.15
2022-12-03T12:13:33.984Z,3.13
2022-12-03T12:16:04.217Z,2.83
2022-12-03T12:18:38.069Z,3.10
2022-12-03T12:21:43.473Z,2.50
2022-12-03T12:24:29.024Z,2.65
2022-12-03T12:26:57.653Z,2.90
2022-12-03T12:31:54.156Z,2.90
2022-12-03T12:34:21.357Z,2.55
2022-12-03T12:36:48.361Z,2.90
2022-12-03T12:39:16.390Z,2.40
2022-12-03T12:41:47.797Z,2.50
2022-12-03T12:44:14.852Z,2.38
2022-12-03T12:46:48.713Z,3.38
2022-12-03T12:49:16.285Z,2.47
2022-12-03T12:51:47.459Z,3.17
2022-12-03T12:54:17.201Z,2.45
2022-12-03T12:56:47.077Z,3.03
2022-12-03T12:59:19.890Z,3.00
2022-12-03T13:01:49.286Z,2.65
2022-12-03T13:04:24.134Z,2.63
2022-12-03T13:06:53.901Z,3.00
2022-12-03T13:09:25.649Z,3.00
2022-12-03T13:11:55.733Z,2.85
2022-12-03T13:14:24.691Z,3.10
2022-12-03T13:16:53.722Z,3.13
2022-12-03T13:19:29.257Z,3.58
2022-12-03T13:22:02.055Z,3.42
2022-12-03T13:24:38.758Z,3.58
2022-12-03T13:27:23.143Z,2.53
2022-12-03T13:30:15.752Z,3.13
2022-12-03T13:32:43.612Z,3.20
2022-12-03T13:35:10.479Z,3.43
2022-12-03T13:37:38.491Z,3.30
2022-12-03T13:40:38.165Z,2.70
2022-12-03T13:43:12.286Z,2.67
2022-12-03T13:45:41.083Z,2.42
2022-12-03T13:48:31.382Z,3.40
2022-12-03T13:51:02.844Z,3.88
2022-12-03T13:53:36.756Z,2.67
2022-12-03T13:56:11.968Z,2.88
2022-12-03T13:58:38.932Z,3.22
2022-12-03T14:01:06.031Z,3.17
2022-12-03T14:03:32.966Z,3.45
2022-12-03T14:05:59.926Z,3.63
2022-12-03T14:08:27.535Z,3.65
2022-12-03T14:11:00.243Z,3.60
2022-12-03T14:13:27.956Z,3.35
2022-12-03T14:15:55.190Z,3.70
2022-12-03T14:18:22.362Z,3.92
2022-12-03T14:20:49.331Z,3.53
2022-12-03T14:23:16.336Z,3.53
2022-12-03T14:25:45.940Z,3.45
2022-12-03T14:28:12.977Z,2.80
2022-12-03T14:30:40.039Z,3.58
2022-12-03T14:33:07.332Z,2.95
2022-12-03T14:35:35.761Z,2.70
2022-12-03T14:38:02.721Z,3.10
2022-12-03T14:40:29.712Z,2.90
2022-12-03T14:42:56.750Z,2.80
2022-12-03T14:45:25.195Z,2.80
2022-12-03T14:47:52.213Z,3.00
2022-12-03T14:50:19.149Z,3.42
2022-12-03T14:52:46.078Z,3.67
2022-12-03T14:55:13.063Z,3.70
2022-12-03T14:57:39.985Z,4.35
2022-12-03T15:00:07.748Z,4.50
2022-12-03T15:02:34.923Z,4.87
2022-12-03T15:05:02.106Z,4.80
2022-12-03T15:07:29.434Z,4.65
2022-12-03T15:09:56.901Z,3.83
2022-12-03T15:12:24.153Z,4.05
2022-12-03T15:14:51.102Z,3.97
2022-12-03T15:17:25.376Z,4.10
2022-12-03T15:19:57.004Z,3.88
2022-12-03T15:22:23.987Z,4.22
2022-12-03T15:24:52.529Z,4.10
2022-12-03T15:27:19.687Z,4.13
2022-12-03T15:29:46.674Z,3.88
2022-12-03T15:32:13.588Z,4.20
2022-12-03T15:34:40.609Z,3.92
2022-12-03T15:37:12.119Z,3.80
2022-12-03T15:39:43.718Z,3.95
2022-12-03T15:42:16.166Z,4.60
2022-12-03T15:44:43.235Z,4.87
2022-12-03T15:47:10.215Z,4.30
2022-12-03T15:49:37.205Z,4.13
2022-12-03T15:52:19.349Z,4.72
2022-12-03T15:54:46.472Z,4.25
2022-12-03T15:57:13.393Z,5.10
2022-12-03T15:59:40.326Z,4.88
2022-12-03T16:02:07.418Z,5.00
2022-12-03T16:04:35.732Z,5.88
2022-12-03T16:07:02.750Z,5.45
2022-12-03T16:09:29.774Z,6.28
2022-12-03T16:11:56.817Z,5.15
2022-12-03T16:14:23.863Z,5.05
2022-12-03T16:16:50.808Z,5.13
2022-12-03T16:19:17.837Z,5.05
2022-12-03T16:21:44.743Z,4.20
2022-12-03T16:24:11.755Z,4.75
2022-12-03T16:26:38.850Z,4.70
2022-12-03T16:29:05.830Z,4.55
2022-12-03T16:31:32.903Z,3.78
2022-12-03T16:33:59.966Z,4.60
2022-12-03T16:36:26.881Z,4.40
2022-12-03T16:38:53.819Z,4.72
2022-12-03T16:41:22.395Z,4.22
2022-12-03T16:46:18.999Z,4.53
2022-12-03T16:48:48.834Z,4.40
2022-12-03T16:51:16.530Z,4.03
2022-12-03T16:53:43.486Z,4.18
2022-12-03T16:56:10.470Z,3.97
2022-12-03T16:58:37.464Z,4.85
2022-12-03T17:01:04.905Z,4.43
2022-12-03T17:03:33.994Z,4.18
2022-12-03T17:06:01.895Z,4.10
2022-12-03T17:08:28.903Z,4.53
2022-12-03T17:10:56.050Z,4.68
2022-12-03T17:13:23.361Z,4.63
2022-12-03T17:15:51.037Z,4.38
2022-12-03T17:18:18.214Z,3.53
2022-12-03T17:20:45.212Z,3.50
2022-12-03T17:23:12.584Z,3.78
2022-12-03T17:25:39.510Z,4.30
2022-12-03T17:28:06.576Z,4.55
2022-12-03T17:30:33.632Z,4.65
2022-12-03T17:33:01.607Z,4.30
2022-12-03T17:35:28.673Z,4.50
2022-12-03T17:37:55.755Z,4.82
2022-12-03T17:40:23.013Z,5.32
2022-12-03T17:42:50.076Z,4.95
2022-12-03T17:45:17.189Z,4.85
2022-12-03T17:47:44.180Z,5.18
2022-12-03T17:50:11.590Z,5.38
2022-12-03T17:52:38.747Z,5.40
2022-12-03T17:55:12.871Z,5.20
2022-12-03T17:57:43.227Z,6.05
2022-12-03T18:00:10.809Z,6.55
2022-12-03T18:02:41.928Z,5.90
2022-12-03T18:05:09.529Z,5.35
2022-12-03T18:07:36.554Z,5.22
2022-12-03T18:10:03.823Z,4.70
2022-12-03T18:12:30.894Z,6.70
2022-12-03T18:14:57.868Z,5.32
2022-12-03T18:17:24.880Z,5.90
2022-12-03T18:19:52.055Z,5.57
2022-12-03T18:22:19.436Z,4.40
2022-12-03T18:24:50.226Z,5.13
2022-12-03T18:27:20.059Z,5.68
2022-12-03T18:29:47.098Z,5.07
2022-12-03T18:32:27.832Z,6.75
2022-12-03T18:34:56.533Z,6.38
2022-12-03T18:37:27.516Z,5.75
2022-12-03T18:39:55.704Z,5.40
2022-12-03T18:42:24.263Z,5.22
2022-12-03T18:44:53.360Z,5.35
2022-12-03T18:47:24.732Z,6.07
2022-12-03T18:49:52.117Z,5.82
2022-12-03T18:52:23.522Z,5.40
2022-12-03T18:54:50.516Z,5.50
2022-12-03T18:57:17.753Z,7.18
2022-12-03T18:59:44.754Z,9.43
2022-12-03T19:03:00.664Z,8.48
2022-12-03T19:05:11.322Z,7.50
2022-12-03T19:07:40.911Z,8.02
2022-12-03T19:10:09.150Z,6.90
2022-12-03T19:12:37.211Z,6.90
2022-12-03T19:15:05.996Z,5.55
2022-12-03T19:17:32.963Z,5.95
2022-12-03T19:20:00.071Z,5.68
2022-12-03T19:22:27.216Z,5.95
2022-12-03T19:24:54.198Z,5.18
2022-12-03T19:27:21.202Z,5.40
2022-12-03T19:29:49.455Z,5.88
2022-12-03T19:32:16.422Z,7.13
2022-12-03T19:34:43.615Z,6.47
2022-12-03T19:37:10.570Z,5.43
2022-12-03T19:39:37.549Z,5.55
2022-12-03T19:42:04.639Z,5.20
2022-12-03T19:44:31.809Z,4.53
2022-12-03T19:46:58.831Z,5.13
2022-12-03T19:49:26.667Z,4.63
2022-12-03T19:51:53.802Z,5.47
2022-12-03T19:54:20.779Z,5.50
2022-12-03T19:56:47.723Z,5.82
2022-12-03T19:59:14.806Z,6.00
2022-12-03T20:01:43.318Z,5.47
2022-12-03T20:04:11.467Z,6.57
2022-12-03T20:06:39.148Z,7.70
2022-12-03T20:09:13.115Z,7.43
2022-12-03T20:11:41.410Z,7.97
2022-12-03T20:14:15.455Z,8.20
2022-12-03T20:16:43.327Z,7.55
2022-12-03T20:19:13.554Z,7.68
2022-12-03T20:21:41.840Z,7.28
2022-12-03T20:24:13.149Z,7.20
2022-12-03T20:26:40.514Z,6.65
2022-12-03T20:29:07.465Z,7.72
2022-12-03T20:31:34.540Z,7.50
2022-12-03T20:34:04.571Z,7.60
2022-12-03T20:36:32.598Z,6.50
2022-12-03T20:39:02.480Z,7.95
2022-12-03T20:41:29.484Z,7.30
2022-12-03T20:43:57.075Z,6.68
2022-12-03T20:46:26.273Z,6.85
2022-12-03T20:48:54.275Z,6.93
2022-12-03T20:51:23.846Z,7.15
2022-12-03T20:53:51.337Z,7.72
2022-12-03T20:56:21.296Z,8.02
2022-12-03T20:58:49.554Z,7.93
2022-12-03T21:01:22.983Z,10.10
2022-12-03T21:03:50.573Z,7.28
2022-12-03T21:06:18.145Z,7.03
2022-12-03T21:08:45.632Z,7.50
2022-12-03T21:11:18.384Z,6.07
2022-12-03T21:13:46.917Z,5.75
2022-12-03T21:16:17.120Z,5.65
2022-12-03T21:18:44.149Z,5.00
2022-12-03T21:21:12.493Z,4.97
2022-12-03T21:23:39.470Z,5.00
2022-12-03T21:26:10.912Z,4.80
2022-12-03T21:28:39.349Z,4.60
2022-12-03T21:31:09.682Z,4.28
2022-12-03T21:33:37.128Z,4.43
2022-12-03T21:36:05.000Z,4.35
2022-12-03T21:38:33.445Z,4.72
2022-12-03T21:41:01.137Z,4.90
2022-12-03T21:43:28.912Z,5.10
2022-12-03T21:45:56.539Z,4.90
2022-12-03T21:48:23.553Z,4.47
2022-12-03T21:51:00.639Z,3.65
2022-12-03T21:53:28.576Z,4.65
2022-12-03T21:55:55.494Z,4.53
2022-12-03T21:58:22.756Z,4.22
2022-12-03T22:00:49.865Z,4.40
2022-12-03T22:03:17.295Z,4.18
2022-12-03T22:05:44.315Z,4.18
2022-12-03T22:08:11.383Z,4.55
2022-12-03T22:10:38.354Z,4.68
2022-12-03T22:13:05.368Z,3.80
2022-12-03T22:15:32.527Z,3.92
2022-12-03T22:17:59.582Z,4.25
2022-12-03T22:20:27.269Z,4.78
2022-12-03T22:22:54.229Z,4.80
2022-12-03T22:25:21.179Z,4.65
2022-12-03T22:27:48.098Z,4.00
2022-12-03T22:30:15.209Z,4.53
2022-12-03T22:32:42.157Z,4.72
2022-12-03T22:35:09.297Z,4.28
2022-12-03T22:37:36.469Z,4.40
2022-12-03T22:40:03.963Z,4.25
2022-12-03T22:42:30.945Z,4.20
2022-12-03T22:44:57.927Z,4.47
2022-12-03T22:47:24.846Z,4.13
2022-12-03T22:49:52.564Z,3.95
2022-12-03T22:52:19.659Z,4.20
2022-12-03T22:54:46.723Z,4.15
2022-12-03T22:57:13.628Z,4.70
2022-12-03T22:59:40.625Z,5.03
2022-12-03T23:02:07.548Z,4.97
2022-12-03T23:04:34.475Z,4.65
2022-12-03T23:07:01.442Z,4.70
2022-12-03T23:09:28.513Z,4.57
2022-12-03T23:11:55.540Z,4.88
2022-12-03T23:14:22.472Z,5.65
2022-12-03T23:16:49.405Z,5.13
2022-12-03T23:19:16.519Z,4.65
2022-12-03T23:21:43.425Z,5.32
2022-12-03T23:24:10.442Z,5.70
2022-12-03T23:26:38.496Z,6.43
2022-12-03T23:29:06.472Z,6.18
2022-12-03T23:31:35.183Z,6.15
2022-12-03T23:34:02.547Z,5.90
2022-12-03T23:36:31.903Z,5.43
2022-12-03T23:38:59.022Z,5.18
2022-12-03T23:41:26.622Z,5.78
2022-12-03T23:43:53.872Z,5.35
2022-12-03T23:46:24.069Z,5.60
2022-12-03T23:48:51.912Z,5.25
2022-12-03T23:51:22.141Z,4.53
2022-12-03T23:53:49.583Z,4.90
2022-12-03T23:56:21.105Z,5.18
2022-12-03T23:58:48.395Z,4.88
